Time;durP1;ratioP1;P1;durP2;ratioP2;P2;SDS_P1;SDS_P2;PMS_P1;PMS_P2;Temp;Humidity;BMP_temperature;BMP_pressure;BME280_temperature;BME280_humidity;BME280_pressure;Samples;Min_cycle;Max_cycle;Signal;HPM_P1;HPM_P2
2022/04/13 00:01:26;;;;;;;3.40;3.10;;;14.60;47.80;;;;;;5038351;28;20519;-74
2022/04/13 00:03:53;;;;;;;3.63;3.20;;;14.60;47.60;;;;;;5048147;28;20480;-77
2022/04/13 00:06:20;;;;;;;5.60;3.13;;;14.50;48.30;;;;;;5050034;28;20475;-77
2022/04/13 00:08:49;;;;;;;3.80;2.97;;;14.50;47.60;;;;;;5043570;28;20456;-76
2022/04/13 00:11:17;;;;;;;4.57;3.47;;;14.40;47.80;;;;;;5036161;28;20457;-76
2022/04/13 00:13:44;;;;;;;3.50;2.90;;;14.30;48.10;;;;;;5035574;28;20519;-75
2022/04/13 00:16:11;;;;;;;4.13;3.67;;;14.30;48.40;;;;;;5040379;28;20493;-77
2022/04/13 00:18:40;;;;;;;7.30;3.67;;;14.30;48.40;;;;;;5049502;28;20477;-78
2022/04/13 00:21:07;;;;;;;4.13;3.60;;;14.40;48.20;;;;;;5051756;28;20473;-77
2022/04/13 00:23:33;;;;;;;3.83;3.37;;;14.40;48.50;;;;;;5051964;28;20460;-76
2022/04/13 00:26:00;;;;;;;3.53;3.23;;;14.30;48.40;;;;;;5054055;28;20449;-79
2022/04/13 00:28:27;;;;;;;3.73;3.43;;;14.30;48.80;;;;;;5054454;28;20440;-75
2022/04/13 00:30:54;;;;;;;4.50;3.17;;;14.30;49.00;;;;;;5051719;28;20463;-75
2022/04/13 00:33:21;;;;;;;3.80;3.47;;;14.20;49.00;;;;;;5053083;28;20446;-75
2022/04/13 00:35:49;;;;;;;6.90;3.40;;;14.20;49.30;;;;;;5054499;28;20468;-81
2022/04/13 00:38:16;;;;;;;4.80;4.30;;;14.20;49.60;;;;;;5055748;28;20464;-76
2022/04/13 00:40:43;;;;;;;3.13;2.83;;;14.10;49.80;;;;;;5047228;28;20504;-78
2022/04/13 00:43:10;;;;;;;5.97;3.60;;;14.10;50.10;;;;;;5045310;28;20553;-76
2022/04/13 00:45:37;;;;;;;5.83;3.80;;;14.10;50.40;;;;;;5042972;28;20428;-76
2022/04/13 00:48:06;;;;;;;5.83;3.63;;;14.20;50.50;;;;;;5036685;28;20460;-76
2022/04/13 00:50:33;;;;;;;4.07;3.70;;;14.20;50.40;;;;;;5034833;28;20462;-76
2022/04/13 00:53:02;;;;;;;3.77;3.40;;;14.20;50.70;;;;;;5034513;28;20429;-77
2022/04/13 00:55:31;;;;;;;4.37;4.00;;;14.20;50.80;;;;;;5034491;28;20901;-75
2022/04/13 00:57:59;;;;;;;7.70;3.27;;;14.20;51.00;;;;;;5034602;28;21092;-75
2022/04/13 01:00:26;;;;;;;7.63;3.60;;;14.20;50.80;;;;;;5034240;28;20472;-76
2022/04/13 01:02:54;;;;;;;5.13;3.77;;;14.20;50.90;;;;;;5034300;28;20890;-75
2022/04/13 01:05:23;;;;;;;7.17;4.03;;;14.20;52.00;;;;;;5033731;28;20817;-76
2022/04/13 01:07:52;;;;;;;12.07;4.00;;;14.30;50.90;;;;;;5034086;28;20480;-75
2022/04/13 01:10:21;;;;;;;4.90;3.50;;;14.20;50.60;;;;;;5033604;28;20808;-77
2022/04/13 01:12:48;;;;;;;4.87;3.83;;;14.20;50.40;;;;;;5034042;28;20471;-76
2022/04/13 01:15:15;;;;;;;4.73;3.30;;;14.20;50.10;;;;;;5033363;28;20429;-75
2022/04/13 01:17:44;;;;;;;4.50;3.40;;;14.10;50.00;;;;;;5033706;28;20449;-78
2022/04/13 01:20:12;;;;;;;5.23;3.30;;;14.10;50.00;;;;;;5033444;28;20504;-74
2022/04/13 01:22:40;;;;;;;3.30;3.00;;;14.10;49.60;;;;;;5033581;28;20489;-76
2022/04/13 01:25:09;;;;;;;5.73;3.27;;;14.20;49.30;;;;;;5034270;28;20473;-75
2022/04/13 01:27:35;;;;;;;5.50;3.13;;;14.30;48.70;;;;;;5035404;28;20450;-75
2022/04/13 01:30:06;;;;;;;4.03;3.30;;;14.30;48.40;;;;;;5038440;28;21008;-76
2022/04/13 01:32:33;;;;;;;3.23;2.90;;;14.30;48.40;;;;;;5043494;28;20455;-75
2022/04/13 01:35:00;;;;;;;5.50;3.00;;;14.30;48.40;;;;;;5040752;28;20544;-75
2022/04/13 01:37:27;;;;;;;6.73;3.20;;;14.30;48.40;;;;;;5034302;28;20493;-78
2022/04/13 01:39:55;;;;;;;3.10;2.80;;;14.30;48.40;;;;;;5034372;28;20501;-76
2022/04/13 01:42:22;;;;;;;6.77;3.10;;;14.20;48.50;;;;;;5034584;28;21025;-76
2022/04/13 01:44:49;;;;;;;4.43;2.40;;;14.20;48.60;;;;;;5037318;28;20831;-76
2022/04/13 01:47:16;;;;;;;5.63;3.77;;;14.20;48.90;;;;;;5042688;28;20545;-76
2022/04/13 01:49:44;;;;;;;5.20;3.20;;;14.10;49.00;;;;;;5044173;28;20972;-77
2022/04/13 01:52:12;;;;;;;10.20;3.57;;;14.10;49.10;;;;;;5047468;28;20458;-75
2022/04/13 01:54:39;;;;;;;5.57;3.00;;;14.10;49.20;;;;;;5044437;28;20464;-76
2022/04/13 01:57:07;;;;;;;3.77;3.20;;;14.00;49.70;;;;;;5044891;28;20468;-75
2022/04/13 01:59:34;;;;;;;3.63;3.33;;;14.00;50.00;;;;;;5046355;28;20473;-76
2022/04/13 02:02:04;;;;;;;3.60;2.93;;;14.00;50.20;;;;;;5047730;28;20424;-78
2022/04/13 02:04:32;;;;;;;5.70;3.10;;;14.00;50.50;;;;;;5045222;28;20508;-76
2022/04/13 02:06:59;;;;;;;4.43;3.30;;;13.90;51.00;;;;;;5041962;28;20532;-77
2022/04/13 02:09:26;;;;;;;3.00;2.80;;;13.90;51.50;;;;;;5036132;28;20476;-74
2022/04/13 02:11:53;;;;;;;7.80;3.30;;;13.90;51.50;;;;;;5037065;28;20519;-76
2022/04/13 02:14:21;;;;;;;5.10;3.37;;;13.90;51.60;;;;;;5036872;28;20428;-76
2022/04/13 02:16:48;;;;;;;3.70;3.40;;;13.80;51.60;;;;;;5037395;28;20467;-75
2022/04/13 02:19:15;;;;;;;3.37;2.87;;;13.90;51.70;;;;;;5039071;28;20564;-75
2022/04/13 02:21:42;;;;;;;4.77;3.40;;;13.90;51.70;;;;;;5052794;28;20433;-77
2022/04/13 02:24:09;;;;;;;4.37;3.40;;;13.90;51.80;;;;;;5052780;28;20428;-74
2022/04/13 02:26:36;;;;;;;4.53;3.10;;;13.80;52.30;;;;;;5048201;28;20461;-75
2022/04/13 02:29:03;;;;;;;8.47;3.53;;;13.70;52.70;;;;;;5050532;28;20812;-78
2022/04/13 02:31:31;;;;;;;4.57;2.90;;;13.70;52.70;;;;;;5050819;28;20455;-74
2022/04/13 02:33:58;;;;;;;3.83;3.10;;;13.70;52.70;;;;;;5048565;28;20486;-75
2022/04/13 02:36:25;;;;;;;3.10;2.80;;;13.70;52.70;;;;;;5038199;28;20522;-76
2022/04/13 02:38:53;;;;;;;3.10;2.60;;;13.70;52.70;;;;;;5036706;28;20477;-75
2022/04/13 02:41:20;;;;;;;4.00;3.23;;;13.70;52.70;;;;;;5037420;28;20532;-76
2022/04/13 02:43:47;;;;;;;3.50;2.60;;;13.60;53.30;;;;;;5038131;28;20611;-76
2022/04/13 02:46:14;;;;;;;4.97;3.20;;;13.60;53.70;;;;;;5038612;28;20494;-78
2022/04/13 02:48:42;;;;;;;5.30;2.70;;;13.50;54.10;;;;;;5041360;28;20528;-76
2022/04/13 02:51:09;;;;;;;5.37;3.10;;;13.40;54.70;;;;;;5049319;28;20448;-76
2022/04/13 02:53:36;;;;;;;3.83;2.60;;;13.40;55.20;;;;;;5044135;28;20477;-76
2022/04/13 02:56:03;;;;;;;8.10;3.43;;;13.30;56.20;;;;;;5054077;28;20213;-82
2022/04/13 02:58:29;;;;;;;4.50;3.40;;;13.20;56.70;;;;;;5057960;28;20444;-78
2022/04/13 03:00:56;;;;;;;3.13;2.80;;;13.20;56.60;;;;;;5039716;28;20942;-76
2022/04/13 03:03:23;;;;;;;4.65;2.53;;;13.10;56.50;;;;;;5036254;28;20453;-76
2022/04/13 03:05:52;;;;;;;5.53;3.57;;;13.10;56.60;;;;;;5036266;28;20210;-75
2022/04/13 03:08:18;;;;;;;4.20;3.70;;;13.10;57.20;;;;;;5036281;28;20456;-74
2022/04/13 03:10:46;;;;;;;3.97;3.38;;;13.10;57.50;;;;;;5035872;28;20469;-75
2022/04/13 03:13:12;;;;;;;5.25;3.33;;;13.00;57.80;;;;;;5035951;28;20223;-75
2022/04/13 03:15:39;;;;;;;4.27;3.10;;;12.90;58.60;;;;;;5035320;28;20682;-75
2022/04/13 03:18:06;;;;;;;7.97;3.63;;;12.90;59.30;;;;;;5035598;28;20500;-74
2022/04/13 03:20:34;;;;;;;4.60;3.35;;;12.80;59.90;;;;;;5035879;28;20453;-76
2022/04/13 03:23:03;;;;;;;3.00;2.65;;;12.80;60.00;;;;;;5036278;28;20207;-76
2022/04/13 03:25:30;;;;;;;3.43;3.10;;;12.70;61.10;;;;;;5044717;28;20297;-75
2022/04/13 03:27:57;;;;;;;5.68;3.40;;;12.60;61.00;;;;;;5044653;28;21000;-75
2022/04/13 03:30:23;;;;;;;5.00;3.20;;;12.60;61.00;;;;;;5041613;28;20215;-75
2022/04/13 03:32:51;;;;;;;3.10;2.67;;;12.50;61.70;;;;;;5043699;28;20480;-74
2022/04/13 03:35:19;;;;;;;3.70;2.90;;;12.40;62.80;;;;;;5039420;28;20833;-75
2022/04/13 03:37:46;;;;;;;3.97;3.30;;;12.40;63.90;;;;;;5035690;28;20538;-74
2022/04/13 03:40:14;;;;;;;5.45;3.10;;;12.40;64.40;;;;;;5034896;28;20545;-74
2022/04/13 03:42:42;;;;;;;9.25;3.58;;;12.40;64.60;;;;;;5035375;28;20211;-75
2022/04/13 03:45:11;;;;;;;4.10;2.95;;;12.40;64.80;;;;;;5035205;28;20686;-75
2022/04/13 03:47:39;;;;;;;3.20;3.00;;;12.40;64.80;;;;;;5035412;28;20275;-76
2022/04/13 03:50:06;;;;;;;4.40;3.65;;;12.40;64.60;;;;;;5037438;28;20233;-76
2022/04/13 03:52:33;;;;;;;4.75;3.13;;;12.30;65.20;;;;;;5055221;28;20213;-75
2022/04/13 03:55:01;;;;;;;3.35;2.92;;;12.20;66.00;;;;;;5054743;28;20214;-76
2022/04/13 03:57:29;;;;;;;5.63;4.15;;;12.10;66.70;;;;;;5055436;28;20230;-76
2022/04/13 03:59:56;;;;;;;4.78;3.30;;;12.10;67.60;;;;;;5054478;28;20732;-75
2022/04/13 04:02:23;;;;;;;8.27;4.15;;;12.00;68.60;;;;;;5054871;28;20213;-75
2022/04/13 04:04:50;;;;;;;4.85;3.38;;;12.00;69.40;;;;;;5054739;28;20328;-77
2022/04/13 04:07:17;;;;;;;4.00;3.50;;;12.00;69.40;;;;;;5055327;28;20377;-77
2022/04/13 04:09:44;;;;;;;5.35;3.42;;;12.00;69.50;;;;;;5044035;28;20236;-78
2022/04/13 04:12:11;;;;;;;4.90;3.55;;;12.00;69.40;;;;;;5035760;28;20207;-77
2022/04/13 04:14:40;;;;;;;5.72;3.22;;;12.00;69.40;;;;;;5043565;28;20198;-78
2022/04/13 04:17:07;;;;;;;4.03;3.20;;;12.10;69.50;;;;;;5055069;28;20317;-77
2022/04/13 04:19:34;;;;;;;4.43;3.40;;;12.10;69.50;;;;;;5053912;28;20456;-78
2022/04/13 04:22:01;;;;;;;4.28;3.50;;;12.10;69.50;;;;;;5062686;28;20789;-78
2022/04/13 04:24:28;;;;;;;6.18;4.00;;;12.10;69.50;;;;;;5073309;28;20197;-77
2022/04/13 04:26:57;;;;;;;9.05;4.05;;;12.10;69.50;;;;;;5078533;28;20219;-79
2022/04/13 04:29:24;;;;;;;5.70;3.80;;;12.00;69.80;;;;;;5076846;28;20213;-79
2022/04/13 04:31:53;;;;;;;7.22;3.88;;;12.00;70.60;;;;;;5071232;28;20266;-77
2022/04/13 04:34:22;;;;;;;6.85;3.58;;;12.00;70.90;;;;;;5057318;28;20218;-77
2022/04/13 04:36:49;;;;;;;6.95;4.35;;;12.00;71.30;;;;;;5055056;28;20318;-77
2022/04/13 04:39:16;;;;;;;7.40;4.88;;;12.00;71.50;;;;;;5054663;28;20297;-77
2022/04/13 04:41:43;;;;;;;6.25;4.45;;;12.00;71.50;;;;;;5059838;28;20210;-77
2022/04/13 04:44:10;;;;;;;5.97;3.90;;;11.90;71.50;;;;;;5066684;28;20207;-76
2022/04/13 04:46:37;;;;;;;5.75;4.25;;;11.90;72.40;;;;;;5054647;28;20213;-77
2022/04/13 04:49:06;;;;;;;7.88;4.10;;;11.90;72.70;;;;;;5053770;28;20240;-75
2022/04/13 04:51:33;;;;;;;7.68;4.60;;;11.80;73.10;;;;;;5054160;28;20301;-76
2022/04/13 04:54:00;;;;;;;10.38;4.22;;;11.70;73.60;;;;;;5053546;28;20454;-76
2022/04/13 04:56:28;;;;;;;4.78;4.07;;;11.70;74.00;;;;;;5053976;28;20297;-76
2022/04/13 04:58:55;;;;;;;4.55;3.92;;;11.70;74.70;;;;;;5055061;28;20328;-77
2022/04/13 05:01:22;;;;;;;7.03;4.13;;;11.70;75.00;;;;;;5057232;28;20218;-76
2022/04/13 05:03:49;;;;;;;7.28;4.35;;;11.70;74.90;;;;;;5056599;28;20210;-76
2022/04/13 05:06:25;;;;;;;7.38;4.78;;;11.80;75.50;;;;;;5056285;28;20242;-75
2022/04/13 05:08:52;;;;;;;6.13;4.32;;;11.80;75.50;;;;;;5058852;28;20230;-76
2022/04/13 05:11:20;;;;;;;9.02;4.20;;;11.90;75.70;;;;;;5060913;28;20297;-75
2022/04/13 05:13:47;;;;;;;6.95;5.88;;;12.00;75.00;;;;;;5059921;28;20666;-76
2022/04/13 05:16:14;;;;;;;10.30;5.43;;;12.10;74.30;;;;;;5058126;28;20301;-76
2022/04/13 05:18:42;;;;;;;8.20;4.97;;;12.20;74.00;;;;;;5058883;28;20227;-76
2022/04/13 05:21:10;;;;;;;5.95;4.60;;;12.30;72.80;;;;;;5055467;28;20584;-76
2022/04/13 05:23:41;;;;;;;9.07;4.95;;;12.40;71.90;;;;;;5054889;28;20689;-76
2022/04/13 05:26:08;;;;;;;6.30;4.70;;;12.40;69.80;;;;;;5063279;28;20206;-76
2022/04/13 05:28:35;;;;;;;12.40;4.82;;;12.40;69.80;;;;;;5062567;28;20226;-75
2022/04/13 05:31:02;;;;;;;7.35;4.85;;;12.40;69.80;;;;;;5055300;28;20277;-77
2022/04/13 05:33:29;;;;;;;8.05;5.90;;;12.60;69.90;;;;;;5055542;28;20268;-76
2022/04/13 05:35:56;;;;;;;10.47;5.27;;;12.80;67.60;;;;;;5054739;28;20624;-76
2022/04/13 05:38:23;;;;;;;8.50;5.77;;;12.90;66.50;;;;;;5053573;28;20503;-77
2022/04/13 05:40:51;;;;;;;8.80;5.30;;;13.10;64.90;;;;;;5053626;28;20432;-76
2022/04/13 05:43:18;;;;;;;6.23;4.73;;;13.30;63.80;;;;;;5054414;28;20459;-76
2022/04/13 05:45:45;;;;;;;8.27;5.50;;;13.50;61.80;;;;;;5054986;28;20459;-76
2022/04/13 05:48:12;;;;;;;9.57;5.23;;;13.70;61.00;;;;;;5054527;28;21036;-76
2022/04/13 05:50:39;;;;;;;9.30;6.50;;;13.80;58.80;;;;;;5054635;28;20546;-77
2022/04/13 05:53:06;;;;;;;11.97;6.53;;;13.60;57.30;;;;;;5053992;28;20552;-76
2022/04/13 05:55:33;;;;;;;7.80;5.57;;;13.60;57.60;;;;;;5054596;28;20460;-77
2022/04/13 05:58:01;;;;;;;9.10;5.93;;;13.60;57.60;;;;;;5056175;28;20458;-76
2022/04/13 06:00:28;;;;;;;7.90;5.70;;;13.90;57.50;;;;;;5059968;28;20925;-75
2022/04/13 06:02:55;;;;;;;6.57;5.10;;;14.20;55.10;;;;;;5065481;28;20544;-77
2022/04/13 06:05:24;;;;;;;7.73;5.83;;;14.40;53.30;;;;;;5063010;28;20513;-76
2022/04/13 06:07:53;;;;;;;6.70;5.20;;;14.70;52.90;;;;;;5054990;28;20451;-76
2022/04/13 06:10:20;;;;;;;6.50;5.67;;;14.80;50.30;;;;;;5057660;28;20501;-76
2022/04/13 06:12:48;;;;;;;5.93;4.73;;;14.60;51.90;;;;;;5056749;28;20932;-76
2022/04/13 06:15:16;;;;;;;11.53;6.60;;;14.80;49.50;;;;;;5055433;28;20453;-75
2022/04/13 06:17:43;;;;;;;7.03;4.70;;;15.00;48.40;;;;;;5060810;28;20487;-74
2022/04/13 06:20:11;;;;;;;9.73;4.93;;;15.00;48.20;;;;;;5073611;28;20496;-75
2022/04/13 06:22:39;;;;;;;7.43;4.53;;;14.80;48.80;;;;;;5074253;28;20404;-75
2022/04/13 06:25:07;;;;;;;6.70;4.70;;;14.80;48.90;;;;;;5073748;28;20430;-76
2022/04/13 06:27:34;;;;;;;8.70;5.63;;;15.00;48.30;;;;;;5067616;28;20516;-77
2022/04/13 06:30:01;;;;;;;5.97;4.03;;;15.10;47.70;;;;;;5059655;28;20523;-77
2022/04/13 06:32:37;;;;;;;3.70;3.20;;;15.00;47.20;;;;;;5060622;28;20420;-76
2022/04/13 06:35:05;;;;;;;6.27;3.83;;;15.10;45.40;;;;;;5064938;28;20491;-75
2022/04/13 06:37:32;;;;;;;4.23;3.20;;;15.30;45.20;;;;;;5066254;28;20545;-75
2022/04/13 06:39:59;;;;;;;4.80;3.33;;;15.30;44.50;;;;;;5063898;28;20807;-76
2022/04/13 06:42:26;;;;;;;7.33;3.60;;;15.30;46.00;;;;;;5064873;28;20466;-74
2022/04/13 06:44:54;;;;;;;6.83;4.13;;;15.60;44.70;;;;;;5065867;28;20428;-76
2022/04/13 06:47:20;;;;;;;7.03;4.07;;;15.70;44.90;;;;;;5069995;28;20460;-76
2022/04/13 06:49:49;;;;;;;5.57;3.00;;;15.80;44.90;;;;;;5067076;28;20487;-76
2022/04/13 06:52:17;;;;;;;4.33;2.90;;;15.60;44.70;;;;;;5072215;28;20424;-76
2022/04/13 06:54:44;;;;;;;7.17;3.50;;;15.70;44.80;;;;;;5072744;28;20952;-76
2022/04/13 06:57:11;;;;;;;6.00;3.23;;;15.90;43.80;;;;;;5060527;28;20551;-75
2022/04/13 06:59:38;;;;;;;5.50;3.53;;;16.00;43.40;;;;;;5066445;28;20564;-75
2022/04/13 07:02:06;;;;;;;5.27;3.60;;;15.60;44.70;;;;;;5058196;28;20474;-76
2022/04/13 07:04:34;;;;;;;5.17;3.67;;;15.60;44.70;;;;;;5059011;28;20506;-76
2022/04/13 07:07:02;;;;;;;7.33;3.20;;;15.70;44.80;;;;;;5063514;28;20490;-76
2022/04/13 07:09:29;;;;;;;5.77;3.00;;;16.00;43.50;;;;;;5068625;28;20473;-76
2022/04/13 07:11:56;;;;;;;7.77;3.80;;;16.20;43.10;;;;;;5066478;28;20444;-75
2022/04/13 07:14:23;;;;;;;12.17;3.97;;;16.30;42.60;;;;;;5064904;28;20495;-75
2022/04/13 07:16:50;;;;;;;4.73;3.13;;;16.30;41.10;;;;;;5064815;28;20456;-75
2022/04/13 07:19:17;;;;;;;5.17;3.53;;;16.20;41.00;;;;;;5066553;28;20467;-75
2022/04/13 07:21:44;;;;;;;8.07;3.70;;;16.50;41.30;;;;;;5070338;28;20448;-76
2022/04/13 07:24:12;;;;;;;7.30;3.20;;;16.70;40.80;;;;;;5068071;28;20415;-77
2022/04/13 07:26:39;;;;;;;3.70;2.80;;;17.10;40.20;;;;;;5057279;28;20467;-76
2022/04/13 07:29:06;;;;;;;2.90;2.50;;;16.30;40.40;;;;;;5056767;28;20546;-77
2022/04/13 07:31:33;;;;;;;4.37;3.17;;;16.50;40.10;;;;;;5058694;28;20548;-75
2022/04/13 07:34:00;;;;;;;6.33;3.87;;;16.80;40.30;;;;;;5059705;28;20526;-77
2022/04/13 07:36:26;;;;;;;4.40;3.07;;;16.90;39.00;;;;;;5060475;28;20455;-77
2022/04/13 07:38:53;;;;;;;4.33;3.23;;;16.80;39.60;;;;;;5061322;28;20873;-77
2022/04/13 07:41:21;;;;;;;3.20;2.90;;;16.80;39.70;;;;;;5056643;28;20552;-76
2022/04/13 07:43:49;;;;;;;3.80;2.67;;;17.00;38.90;;;;;;5056015;28;20506;-76
2022/04/13 07:46:16;;;;;;;5.07;3.23;;;17.50;38.30;;;;;;5055512;28;20564;-76
2022/04/13 07:48:44;;;;;;;4.37;2.70;;;17.70;38.30;;;;;;5055547;28;20532;-76
2022/04/13 07:51:11;;;;;;;3.10;2.80;;;18.10;37.00;;;;;;5055315;28;20453;-76
2022/04/13 07:53:38;;;;;;;5.93;3.33;;;18.60;36.10;;;;;;5055890;28;20557;-77
2022/04/13 07:56:05;;;;;;;5.57;3.00;;;18.50;35.00;;;;;;5055494;28;20579;-77
2022/04/13 07:58:33;;;;;;;5.43;2.60;;;18.70;35.00;;;;;;5055057;28;20528;-77
2022/04/13 08:01:00;;;;;;;5.00;2.93;;;19.00;34.00;;;;;;5054982;28;20453;-76
2022/04/13 08:03:27;;;;;;;6.93;3.17;;;18.60;34.60;;;;;;5054175;28;20456;-77
2022/04/13 08:05:54;;;;;;;7.70;3.60;;;18.50;35.20;;;;;;5055102;28;20544;-77
2022/04/13 08:08:21;;;;;;;5.00;2.90;;;18.30;35.90;;;;;;5055346;28;20478;-77
2022/04/13 08:10:48;;;;;;;5.20;2.67;;;18.70;35.30;;;;;;5054731;28;20432;-75
2022/04/13 08:13:15;;;;;;;8.70;3.50;;;18.90;34.50;;;;;;5054754;28;20468;-77
2022/04/13 08:15:43;;;;;;;2.63;2.43;;;19.40;33.10;;;;;;5055676;28;20536;-77
2022/04/13 08:18:10;;;;;;;5.13;2.67;;;19.70;32.60;;;;;;5055690;28;20578;-76
2022/04/13 08:20:38;;;;;;;3.37;2.53;;;19.90;31.60;;;;;;5055871;28;20534;-77
2022/04/13 08:23:05;;;;;;;4.33;2.67;;;20.10;31.30;;;;;;5055136;28;20820;-76
2022/04/13 08:25:32;;;;;;;9.70;3.00;;;20.30;29.90;;;;;;5055388;28;20898;-77
2022/04/13 08:27:59;;;;;;;3.13;2.80;;;20.50;30.10;;;;;;5054718;28;20533;-76
2022/04/13 08:30:26;;;;;;;3.90;2.63;;;19.90;31.00;;;;;;5054987;28;20484;-77
2022/04/13 08:32:54;;;;;;;6.70;2.90;;;19.50;32.20;;;;;;5055071;28;20439;-77
2022/04/13 08:35:21;;;;;;;2.87;2.60;;;19.60;32.20;;;;;;5054691;28;20644;-76
2022/04/13 08:37:48;;;;;;;10.70;2.90;;;19.80;31.30;;;;;;5054761;28;20480;-78
2022/04/13 08:40:17;;;;;;;5.77;3.00;;;20.20;30.70;;;;;;5054436;28;20510;-76
2022/04/13 08:42:47;;;;;;;7.53;2.73;;;20.50;29.20;;;;;;5054553;28;20462;-77
2022/04/13 08:45:21;;;;;;;5.13;2.70;;;20.60;29.30;;;;;;5054694;28;20449;-77
2022/04/13 08:47:48;;;;;;;4.80;3.07;;;20.30;28.40;;;;;;5055562;28;20450;-77
2022/04/13 08:50:18;;;;;;;6.37;2.90;;;19.60;28.70;;;;;;5054588;28;20485;-76
2022/04/13 08:52:52;;;;;;;9.83;3.20;;;19.70;28.70;;;;;;5054794;28;20503;-76
2022/04/13 08:55:22;;;;;;;11.93;2.87;;;19.90;28.80;;;;;;5054856;28;20465;-77
2022/04/13 08:57:50;;;;;;;12.40;3.30;;;20.40;28.20;;;;;;5055253;28;20544;-77
2022/04/13 09:00:19;;;;;;;9.20;3.50;;;20.50;26.60;;;;;;5054542;28;20573;-77
2022/04/13 09:03:15;;;;;;;4.00;2.27;;;20.00;26.50;;;;;;5066292;28;20875;-76
2022/04/13 09:05:44;;;;;;;4.50;2.40;;;19.80;27.60;;;;;;5062536;28;20491;-78
2022/04/13 09:08:18;;;;;;;5.70;2.20;;;20.30;26.60;;;;;;5077306;28;20452;-78
2022/04/13 09:10:47;;;;;;;9.30;3.37;;;20.70;25.30;;;;;;5077349;28;20448;-78
2022/04/13 09:13:15;;;;;;;4.50;2.40;;;20.50;26.40;;;;;;5077440;28;20422;-77
2022/04/13 09:15:43;;;;;;;4.40;2.33;;;20.50;26.30;;;;;;5076246;28;20504;-76
2022/04/13 09:18:11;;;;;;;6.30;2.43;;;20.70;26.30;;;;;;5076143;28;20521;-77
2022/04/13 09:20:39;;;;;;;5.60;2.10;;;20.30;26.50;;;;;;5075826;28;20458;-77
2022/04/13 09:23:08;;;;;;;4.20;2.60;;;20.70;26.10;;;;;;5077273;28;20453;-78
2022/04/13 09:25:36;;;;;;;4.60;2.40;;;20.80;26.00;;;;;;5077506;28;20435;-77
2022/04/13 09:28:04;;;;;;;3.67;2.07;;;21.00;25.30;;;;;;5075391;28;20442;-78
2022/04/13 09:30:33;;;;;;;4.73;2.67;;;21.20;25.50;;;;;;5058286;28;20558;-77
2022/04/13 09:33:01;;;;;;;6.73;2.43;;;21.30;24.40;;;;;;5057522;28;20568;-76
2022/04/13 09:35:32;;;;;;;3.87;2.20;;;21.00;24.90;;;;;;5059677;28;20454;-75
2022/04/13 09:38:03;;;;;;;4.63;2.13;;;21.10;25.60;;;;;;5057796;28;20941;-76
2022/04/13 09:40:39;;;;;;;63.93;10.20;;;20.90;25.80;;;;;;5057887;28;20451;-77
2022/04/13 09:43:08;;;;;;;4.37;2.17;;;20.90;25.80;;;;;;5064031;28;20470;-77
2022/04/13 09:45:36;;;;;;;5.50;2.57;;;20.60;25.50;;;;;;5064262;28;20484;-77
2022/04/13 09:48:08;;;;;;;3.13;2.37;;;21.10;25.10;;;;;;5064794;28;20448;-77
2022/04/13 09:50:36;;;;;;;21.60;3.80;;;21.50;24.10;;;;;;5063900;28;20483;-76
2022/04/13 09:53:05;;;;;;;8.03;2.80;;;21.50;24.00;;;;;;5070472;28;20485;-76
2022/04/13 09:55:35;;;;;;;3.00;2.10;;;21.00;25.20;;;;;;5070347;28;20928;-76
2022/04/13 09:58:09;;;;;;;5.67;2.70;;;21.60;24.20;;;;;;5071491;28;20534;-76
2022/04/13 10:00:37;;;;;;;4.50;2.37;;;21.50;23.90;;;;;;5072853;28;20458;-75
2022/04/13 10:03:14;;;;;;;3.50;2.10;;;21.70;22.90;;;;;;5068651;28;20941;-78
2022/04/13 10:05:46;;;;;;;4.80;2.20;;;21.90;22.10;;;;;;5070432;28;20430;-78
2022/04/13 10:08:15;;;;;;;6.57;2.50;;;22.20;22.20;;;;;;5067535;28;20448;-76
2022/04/13 10:10:44;;;;;;;14.20;3.20;;;22.40;22.40;;;;;;5066495;28;20457;-77
2022/04/13 10:13:13;;;;;;;12.07;2.73;;;22.60;22.60;;;;;;5069378;28;20440;-76
2022/04/13 10:15:40;;;;;;;46.27;7.20;;;22.80;21.90;;;;;;5068383;28;20480;-75
2022/04/13 10:18:07;;;;;;;7.10;3.03;;;22.90;22.70;;;;;;5068307;28;20507;-77
2022/04/13 10:20:45;;;;;;;3.93;1.97;;;22.00;23.10;;;;;;5071855;28;20438;-75
2022/04/13 10:23:12;;;;;;;6.00;2.93;;;21.50;23.20;;;;;;5072202;28;20972;-76
2022/04/13 10:25:40;;;;;;;11.63;2.90;;;21.30;23.70;;;;;;5072137;28;20424;-75
2022/04/13 10:28:07;;;;;;;12.63;3.67;;;21.20;23.70;;;;;;5074989;28;20520;-76
2022/04/13 10:30:37;;;;;;;3.27;2.30;;;21.40;23.30;;;;;;5074886;28;20532;-78
2022/04/13 10:33:07;;;;;;;11.87;2.33;;;21.50;22.70;;;;;;5070203;28;20957;-78
2022/04/13 10:35:36;;;;;;;3.67;1.87;;;21.70;21.90;;;;;;5070367;28;20815;-78
2022/04/13 10:38:04;;;;;;;7.20;1.70;;;21.80;21.90;;;;;;5078540;28;20468;-75
2022/04/13 10:40:33;;;;;;;5.10;2.40;;;22.30;21.40;;;;;;5063311;28;20515;-76
2022/04/13 10:43:01;;;;;;;4.20;2.30;;;22.80;22.60;;;;;;5058197;28;20491;-75
2022/04/13 10:45:29;;;;;;;3.80;1.83;;;23.20;21.40;;;;;;5058116;28;20847;-75
2022/04/13 10:48:01;;;;;;;7.43;2.63;;;23.10;21.40;;;;;;5058900;28;20492;-75
2022/04/13 10:50:37;;;;;;;3.23;2.50;;;23.00;21.50;;;;;;5062374;28;20497;-77
2022/04/13 10:53:16;;;;;;;2.40;1.37;;;23.00;21.10;;;;;;5064915;28;20820;-77
2022/04/13 10:55:43;;;;;;;3.70;1.70;;;22.80;21.20;;;;;;5057578;28;20543;-77
2022/04/13 10:58:16;;;;;;;3.37;2.17;;;23.10;21.20;;;;;;5057709;28;20486;-77
2022/04/13 11:00:46;;;;;;;4.60;1.93;;;23.50;21.00;;;;;;5057000;28;20453;-77
2022/04/13 11:03:16;;;;;;;10.40;2.30;;;23.90;20.70;;;;;;5069761;28;20491;-77
2022/04/13 11:05:43;;;;;;;7.20;1.63;;;23.90;19.70;;;;;;5060074;28;20468;-78
2022/04/13 11:08:22;;;;;;;6.90;2.00;;;23.80;20.20;;;;;;5067193;28;20467;-77
2022/04/13 11:10:50;;;;;;;2.13;1.50;;;23.60;20.70;;;;;;5057199;28;20548;-77
2022/04/13 11:13:19;;;;;;;8.20;2.03;;;23.90;20.20;;;;;;5058728;28;20461;-77
2022/04/13 11:15:49;;;;;;;7.07;2.37;;;23.80;19.50;;;;;;5059301;28;20457;-77
2022/04/13 11:18:20;;;;;;;5.73;2.13;;;23.30;20.50;;;;;;5061868;28;20445;-79
2022/04/13 11:21:08;;;;;;;4.10;1.80;;;23.00;20.60;;;;;;5057131;28;20912;-77
2022/04/13 11:23:49;;;;;;;3.17;2.03;;;23.30;20.00;;;;;;5059436;28;20551;-78
2022/04/13 11:26:17;;;;;;;6.30;2.07;;;23.80;18.90;;;;;;5060811;28;20498;-77
2022/04/13 11:28:44;;;;;;;3.57;1.83;;;24.20;19.50;;;;;;5057492;28;20468;-77
2022/04/13 11:31:12;;;;;;;4.13;1.93;;;23.30;20.30;;;;;;5056229;28;21028;-76
2022/04/13 11:33:52;;;;;;;2.67;2.07;;;23.40;20.80;;;;;;5056608;28;20583;-77
2022/04/13 11:36:23;;;;;;;3.27;1.87;;;23.60;20.40;;;;;;5056280;28;20968;-76
2022/04/13 11:38:52;;;;;;;3.37;1.57;;;24.10;19.20;;;;;;5056852;28;20587;-77
2022/04/13 11:41:19;;;;;;;6.50;2.07;;;24.00;19.10;;;;;;5057003;28;20476;-77
2022/04/13 11:43:47;;;;;;;4.07;2.40;;;24.20;19.40;;;;;;5058986;28;20506;-76
2022/04/13 11:46:37;;;;;;;5.00;1.67;;;24.40;18.30;;;;;;5058517;28;20456;-75
2022/04/13 11:49:09;;;;;;;3.93;1.70;;;24.50;18.30;;;;;;5076983;28;20485;-78
2022/04/13 11:51:36;;;;;;;4.00;2.30;;;24.50;18.80;;;;;;5078542;28;20510;-77
2022/04/13 11:54:14;;;;;;;3.50;1.80;;;24.00;19.30;;;;;;5077820;28;20445;-77
2022/04/13 11:56:51;;;;;;;3.93;1.90;;;23.80;19.80;;;;;;5078731;28;20512;-76
2022/04/13 11:59:40;;;;;;;3.60;2.17;;;23.50;19.70;;;;;;5077596;28;20496;-75
2022/04/13 12:02:08;;;;;;;3.40;2.03;;;23.40;20.40;;;;;;5070723;28;20453;-76
2022/04/13 12:04:39;;;;;;;3.07;1.93;;;23.70;19.90;;;;;;5058133;28;20968;-76
2022/04/13 12:07:09;;;;;;;5.33;2.00;;;24.20;19.40;;;;;;5056785;28;20461;-75
2022/04/13 12:09:37;;;;;;;2.10;1.80;;;24.50;19.90;;;;;;5056347;28;21096;-76
2022/04/13 12:12:04;;;;;;;12.13;2.47;;;24.70;18.90;;;;;;5057435;28;20518;-75
2022/04/13 12:14:38;;;;;;;12.23;3.10;;;24.80;19.20;;;;;;5062392;28;20449;-76
2022/04/13 12:17:05;;;;;;;4.50;2.33;;;24.50;18.90;;;;;;5059472;28;20465;-75
2022/04/13 12:19:42;;;;;;;2.73;1.90;;;24.60;19.20;;;;;;5060907;28;20506;-76
2022/04/13 12:22:15;;;;;;;3.60;2.40;;;24.80;18.50;;;;;;5059226;28;20913;-76
2022/04/13 12:24:57;;;;;;;20.47;4.00;;;24.00;19.30;;;;;;5057351;28;20461;-77
2022/04/13 12:27:24;;;;;;;5.93;1.83;;;23.90;20.20;;;;;;5056760;28;20441;-78
2022/04/13 12:29:51;;;;;;;8.63;2.90;;;24.10;19.40;;;;;;5056483;28;20476;-76
2022/04/13 12:32:19;;;;;;;44.17;6.50;;;24.30;19.50;;;;;;5055917;28;20539;-75
2022/04/13 12:34:58;;;;;;;2.90;1.40;;;24.50;19.50;;;;;;5057236;28;20518;-77
2022/04/13 12:37:25;;;;;;;6.90;2.97;;;24.50;19.40;;;;;;5063631;28;20910;-76
2022/04/13 12:39:52;;;;;;;6.70;2.00;;;24.90;19.20;;;;;;5064242;28;20545;-77
2022/04/13 12:42:24;;;;;;;3.33;2.23;;;24.50;19.30;;;;;;5056374;28;20542;-75
2022/04/13 12:44:50;;;;;;;7.60;2.30;;;24.40;19.60;;;;;;5056800;28;20458;-75
2022/04/13 12:47:17;;;;;;;6.67;2.00;;;24.70;19.10;;;;;;5056931;28;20534;-75
2022/04/13 12:49:59;;;;;;;2.60;1.90;;;24.80;19.00;;;;;;5064318;28;20478;-77
2022/04/13 12:52:29;;;;;;;6.57;2.20;;;24.90;19.30;;;;;;5074882;28;20451;-75